sensor_id;sensor_type;location;lat;lon;timestamp;P1;durP1;ratioP1;P2;durP2;ratioP2
66619;SDS011;53484;51.356;6.732;2023-04-01T00:01:32;10.43;;;1.67;;
66619;SDS011;53484;51.356;6.732;2023-04-01T00:03:59;5.07;;;0.98;;
66619;SDS011;53484;51.356;6.732;2023-04-01T00:06:27;7.63;;;1.75;;
66619;SDS011;53484;51.356;6.732;2023-04-01T00:08:53;5.63;;;1.30;;
66619;SDS011;53484;51.356;6.732;2023-04-01T00:11:20;6.43;;;1.05;;
66619;SDS011;53484;51.356;6.732;2023-04-01T00:13:46;5.30;;;1.37;;
66619;SDS011;53484;51.356;6.732;2023-04-01T00:16:13;8.70;;;1.52;;
66619;SDS011;53484;51.356;6.732;2023-04-01T00:18:41;6.03;;;1.40;;
66619;SDS011;53484;51.356;6.732;2023-04-01T00:21:07;5.72;;;1.10;;
66619;SDS011;53484;51.356;6.732;2023-04-01T00:23:34;4.28;;;1.25;;
66619;SDS011;53484;51.356;6.732;2023-04-01T00:26:01;5.20;;;1.20;;
66619;SDS011;53484;51.356;6.732;2023-04-01T00:28:27;5.35;;;1.40;;
66619;SDS011;53484;51.356;6.732;2023-04-01T00:30:53;5.22;;;1.20;;
66619;SDS011;53484;51.356;6.732;2023-04-01T00:33:20;5.90;;;1.50;;
66619;SDS011;53484;51.356;6.732;2023-04-01T00:35:47;4.22;;;1.13;;
66619;SDS011;53484;51.356;6.732;2023-04-01T00:38:14;9.07;;;1.50;;
66619;SDS011;53484;51.356;6.732;2023-04-01T00:40:42;5.80;;;1.40;;
66619;SDS011;53484;51.356;6.732;2023-04-01T00:43:10;4.28;;;1.40;;
66619;SDS011;53484;51.356;6.732;2023-04-01T00:45:37;6.85;;;1.48;;
66619;SDS011;53484;51.356;6.732;2023-04-01T00:48:05;6.78;;;1.98;;
66619;SDS011;53484;51.356;6.732;2023-04-01T00:50:32;5.30;;;1.23;;
66619;SDS011;53484;51.356;6.732;2023-04-01T00:53:00;5.82;;;1.33;;
66619;SDS011;53484;51.356;6.732;2023-04-01T00:55:28;4.70;;;0.95;;
66619;SDS011;53484;51.356;6.732;2023-04-01T00:57:55;3.97;;;1.23;;
66619;SDS011;53484;51.356;6.732;2023-04-01T01:00:23;4.28;;;1.27;;
66619;SDS011;53484;51.356;6.732;2023-04-01T01:02:51;5.37;;;1.30;;
66619;SDS011;53484;51.356;6.732;2023-04-01T01:05:17;6.40;;;1.30;;
66619;SDS011;53484;51.356;6.732;2023-04-01T01:07:47;4.18;;;1.08;;
66619;SDS011;53484;51.356;6.732;2023-04-01T01:10:18;4.68;;;1.00;;
66619;SDS011;53484;51.356;6.732;2023-04-01T01:12:48;3.85;;;1.15;;
66619;SDS011;53484;51.356;6.732;2023-04-01T01:15:16;5.50;;;1.10;;
66619;SDS011;53484;51.356;6.732;2023-04-01T01:17:48;4.07;;;1.13;;
66619;SDS011;53484;51.356;6.732;2023-04-01T01:23:05;4.63;;;0.98;;
66619;SDS011;53484;51.356;6.732;2023-04-01T01:25:39;4.22;;;1.00;;
66619;SDS011;53484;51.356;6.732;2023-04-01T01:28:14;2.87;;;0.70;;
66619;SDS011;53484;51.356;6.732;2023-04-01T01:30:43;4.90;;;1.13;;
66619;SDS011;53484;51.356;6.732;2023-04-01T01:33:20;3.85;;;0.90;;
66619;SDS011;53484;51.356;6.732;2023-04-01T01:35:51;4.43;;;0.95;;
66619;SDS011;53484;51.356;6.732;2023-04-01T01:38:20;3.53;;;0.60;;
66619;SDS011;53484;51.356;6.732;2023-04-01T01:40:48;3.60;;;0.80;;
66619;SDS011;53484;51.356;6.732;2023-04-01T01:43:17;2.90;;;0.70;;
66619;SDS011;53484;51.356;6.732;2023-04-01T01:45:46;2.80;;;0.80;;
66619;SDS011;53484;51.356;6.732;2023-04-01T01:48:14;7.32;;;0.70;;
66619;SDS011;53484;51.356;6.732;2023-04-01T01:50:41;4.15;;;0.95;;
66619;SDS011;53484;51.356;6.732;2023-04-01T01:53:10;4.93;;;1.50;;
66619;SDS011;53484;51.356;6.732;2023-04-01T01:55:38;5.55;;;0.90;;
66619;SDS011;53484;51.356;6.732;2023-04-01T01:58:05;4.80;;;1.08;;
66619;SDS011;53484;51.356;6.732;2023-04-01T02:00:33;2.40;;;0.80;;
66619;SDS011;53484;51.356;6.732;2023-04-01T02:03:00;4.25;;;1.20;;
66619;SDS011;53484;51.356;6.732;2023-04-01T02:05:27;6.00;;;0.97;;
66619;SDS011;53484;51.356;6.732;2023-04-01T02:07:55;4.22;;;1.00;;
66619;SDS011;53484;51.356;6.732;2023-04-01T02:10:25;3.10;;;1.13;;
66619;SDS011;53484;51.356;6.732;2023-04-01T02:12:53;2.88;;;0.60;;
66619;SDS011;53484;51.356;6.732;2023-04-01T02:15:20;4.57;;;1.50;;
66619;SDS011;53484;51.356;6.732;2023-04-01T02:17:47;4.13;;;1.07;;
66619;SDS011;53484;51.356;6.732;2023-04-01T02:20:14;5.05;;;1.05;;
66619;SDS011;53484;51.356;6.732;2023-04-01T02:22:43;9.50;;;1.40;;
66619;SDS011;53484;51.356;6.732;2023-04-01T02:25:11;3.88;;;0.77;;
66619;SDS011;53484;51.356;6.732;2023-04-01T02:27:39;6.28;;;1.13;;
66619;SDS011;53484;51.356;6.732;2023-04-01T02:30:07;3.10;;;1.40;;
66619;SDS011;53484;51.356;6.732;2023-04-01T02:32:33;8.40;;;2.13;;
66619;SDS011;53484;51.356;6.732;2023-04-01T02:35:03;16.50;;;1.50;;
66619;SDS011;53484;51.356;6.732;2023-04-01T02:37:31;6.60;;;1.75;;
66619;SDS011;53484;51.356;6.732;2023-04-01T02:39:58;6.00;;;1.20;;
66619;SDS011;53484;51.356;6.732;2023-04-01T02:42:25;5.30;;;1.43;;
66619;SDS011;53484;51.356;6.732;2023-04-01T02:44:53;6.47;;;1.52;;
66619;SDS011;53484;51.356;6.732;2023-04-01T02:47:19;4.72;;;1.92;;
66619;SDS011;53484;51.356;6.732;2023-04-01T02:49:45;6.63;;;1.63;;
66619;SDS011;53484;51.356;6.732;2023-04-01T02:52:11;6.50;;;1.95;;
66619;SDS011;53484;51.356;6.732;2023-04-01T02:54:38;6.03;;;1.70;;
66619;SDS011;53484;51.356;6.732;2023-04-01T02:57:04;9.20;;;1.80;;
66619;SDS011;53484;51.356;6.732;2023-04-01T02:59:30;5.07;;;1.73;;
66619;SDS011;53484;51.356;6.732;2023-04-01T03:01:58;4.93;;;1.83;;
66619;SDS011;53484;51.356;6.732;2023-04-01T03:04:24;6.50;;;2.22;;
66619;SDS011;53484;51.356;6.732;2023-04-01T03:06:51;7.07;;;1.90;;
66619;SDS011;53484;51.356;6.732;2023-04-01T03:09:17;4.88;;;1.77;;
66619;SDS011;53484;51.356;6.732;2023-04-01T03:11:43;6.05;;;2.20;;
66619;SDS011;53484;51.356;6.732;2023-04-01T03:14:09;6.93;;;2.60;;
66619;SDS011;53484;51.356;6.732;2023-04-01T03:16:36;5.47;;;2.33;;
66619;SDS011;53484;51.356;6.732;2023-04-01T03:19:03;6.53;;;2.07;;
66619;SDS011;53484;51.356;6.732;2023-04-01T03:21:30;6.65;;;2.90;;
66619;SDS011;53484;51.356;6.732;2023-04-01T03:23:56;6.72;;;2.53;;
66619;SDS011;53484;51.356;6.732;2023-04-01T03:26:23;9.18;;;2.72;;
66619;SDS011;53484;51.356;6.732;2023-04-01T03:28:51;5.35;;;2.03;;
66619;SDS011;53484;51.356;6.732;2023-04-01T03:31:18;13.20;;;2.67;;
66619;SDS011;53484;51.356;6.732;2023-04-01T03:33:44;5.72;;;2.33;;
66619;SDS011;53484;51.356;6.732;2023-04-01T03:36:12;5.38;;;2.72;;
66619;SDS011;53484;51.356;6.732;2023-04-01T03:38:39;4.50;;;1.90;;
66619;SDS011;53484;51.356;6.732;2023-04-01T03:41:06;6.63;;;2.17;;
66619;SDS011;53484;51.356;6.732;2023-04-01T03:43:32;6.60;;;2.00;;
66619;SDS011;53484;51.356;6.732;2023-04-01T03:45:59;8.30;;;2.05;;
66619;SDS011;53484;51.356;6.732;2023-04-01T03:48:25;6.20;;;2.03;;
66619;SDS011;53484;51.356;6.732;2023-04-01T03:50:51;5.18;;;1.88;;
66619;SDS011;53484;51.356;6.732;2023-04-01T03:53:19;4.22;;;1.45;;
66619;SDS011;53484;51.356;6.732;2023-04-01T03:55:46;3.67;;;1.63;;
66619;SDS011;53484;51.356;6.732;2023-04-01T03:58:12;5.07;;;1.90;;
66619;SDS011;53484;51.356;6.732;2023-04-01T04:00:39;5.70;;;1.77;;
66619;SDS011;53484;51.356;6.732;2023-04-01T04:03:05;4.13;;;1.77;;
66619;SDS011;53484;51.356;6.732;2023-04-01T04:05:32;6.35;;;1.67;;
66619;SDS011;53484;51.356;6.732;2023-04-01T04:07:58;8.60;;;1.80;;
66619;SDS011;53484;51.356;6.732;2023-04-01T04:10:26;3.08;;;1.27;;
66619;SDS011;53484;51.356;6.732;2023-04-01T04:12:54;5.93;;;2.10;;
66619;SDS011;53484;51.356;6.732;2023-04-01T04:15:20;4.57;;;1.80;;
66619;SDS011;53484;51.356;6.732;2023-04-01T04:17:46;3.30;;;1.30;;
66619;SDS011;53484;51.356;6.732;2023-04-01T04:20:13;5.50;;;1.83;;
66619;SDS011;53484;51.356;6.732;2023-04-01T04:22:39;4.53;;;1.60;;
66619;SDS011;53484;51.356;6.732;2023-04-01T04:25:06;4.60;;;1.85;;
66619;SDS011;53484;51.356;6.732;2023-04-01T04:27:34;6.40;;;2.10;;
66619;SDS011;53484;51.356;6.732;2023-04-01T04:30:00;5.45;;;2.10;;
66619;SDS011;53484;51.356;6.732;2023-04-01T04:32:27;3.60;;;1.97;;
66619;SDS011;53484;51.356;6.732;2023-04-01T04:34:54;3.50;;;1.88;;
66619;SDS011;53484;51.356;6.732;2023-04-01T04:37:21;4.28;;;1.95;;
66619;SDS011;53484;51.356;6.732;2023-04-01T04:39:47;5.25;;;2.17;;
66619;SDS011;53484;51.356;6.732;2023-04-01T04:42:13;3.85;;;2.00;;
66619;SDS011;53484;51.356;6.732;2023-04-01T04:44:41;5.17;;;2.20;;
66619;SDS011;53484;51.356;6.732;2023-04-01T04:47:08;6.28;;;2.13;;
66619;SDS011;53484;51.356;6.732;2023-04-01T04:49:34;4.63;;;2.10;;
66619;SDS011;53484;51.356;6.732;2023-04-01T04:52:00;5.68;;;2.25;;
66619;SDS011;53484;51.356;6.732;2023-04-01T04:54:27;6.13;;;2.55;;
66619;SDS011;53484;51.356;6.732;2023-04-01T04:56:53;7.87;;;3.13;;
66619;SDS011;53484;51.356;6.732;2023-04-01T04:59:20;5.38;;;2.50;;
66619;SDS011;53484;51.356;6.732;2023-04-01T05:01:47;5.60;;;2.25;;
66619;SDS011;53484;51.356;6.732;2023-04-01T05:04:14;6.20;;;3.00;;
66619;SDS011;53484;51.356;6.732;2023-04-01T05:06:42;8.75;;;3.17;;
66619;SDS011;53484;51.356;6.732;2023-04-01T05:09:08;6.27;;;2.67;;
66619;SDS011;53484;51.356;6.732;2023-04-01T05:11:37;6.35;;;2.80;;
66619;SDS011;53484;51.356;6.732;2023-04-01T05:14:03;8.02;;;3.00;;
66619;SDS011;53484;51.356;6.732;2023-04-01T05:16:30;5.93;;;3.05;;
66619;SDS011;53484;51.356;6.732;2023-04-01T05:18:57;8.48;;;3.45;;
66619;SDS011;53484;51.356;6.732;2023-04-01T05:21:24;7.37;;;3.37;;
66619;SDS011;53484;51.356;6.732;2023-04-01T05:23:50;5.50;;;2.97;;
66619;SDS011;53484;51.356;6.732;2023-04-01T05:26:16;6.55;;;3.00;;
66619;SDS011;53484;51.356;6.732;2023-04-01T05:28:46;6.82;;;2.95;;
66619;SDS011;53484;51.356;6.732;2023-04-01T05:31:12;8.13;;;3.05;;
66619;SDS011;53484;51.356;6.732;2023-04-01T05:33:38;6.73;;;3.10;;
66619;SDS011;53484;51.356;6.732;2023-04-01T05:36:07;10.63;;;4.45;;
66619;SDS011;53484;51.356;6.732;2023-04-01T05:38:33;8.50;;;4.45;;
66619;SDS011;53484;51.356;6.732;2023-04-01T05:41:00;12.20;;;4.30;;
66619;SDS011;53484;51.356;6.732;2023-04-01T05:43:26;10.00;;;4.32;;
66619;SDS011;53484;51.356;6.732;2023-04-01T05:45:52;7.37;;;4.03;;
66619;SDS011;53484;51.356;6.732;2023-04-01T05:48:19;8.65;;;3.97;;
66619;SDS011;53484;51.356;6.732;2023-04-01T05:50:45;10.88;;;4.32;;
66619;SDS011;53484;51.356;6.732;2023-04-01T05:53:13;10.10;;;4.35;;
66619;SDS011;53484;51.356;6.732;2023-04-01T05:55:39;8.77;;;4.47;;
66619;SDS011;53484;51.356;6.732;2023-04-01T05:58:05;12.40;;;4.50;;
66619;SDS011;53484;51.356;6.732;2023-04-01T06:00:32;10.13;;;4.30;;
66619;SDS011;53484;51.356;6.732;2023-04-01T06:02:58;8.18;;;4.38;;
66619;SDS011;53484;51.356;6.732;2023-04-01T06:05:25;9.52;;;4.72;;
66619;SDS011;53484;51.356;6.732;2023-04-01T06:07:54;9.50;;;4.22;;
66619;SDS011;53484;51.356;6.732;2023-04-01T06:10:22;9.80;;;4.40;;
66619;SDS011;53484;51.356;6.732;2023-04-01T06:12:56;8.70;;;4.00;;
66619;SDS011;53484;51.356;6.732;2023-04-01T06:15:28;7.07;;;3.92;;
66619;SDS011;53484;51.356;6.732;2023-04-01T06:18:01;9.77;;;4.15;;
66619;SDS011;53484;51.356;6.732;2023-04-01T06:20:32;8.65;;;3.47;;
66619;SDS011;53484;51.356;6.732;2023-04-01T06:23:07;8.73;;;4.27;;
66619;SDS011;53484;51.356;6.732;2023-04-01T06:25:54;8.35;;;4.25;;
66619;SDS011;53484;51.356;6.732;2023-04-01T06:28:38;9.43;;;4.75;;
66619;SDS011;53484;51.356;6.732;2023-04-01T06:31:09;9.00;;;4.80;;
66619;SDS011;53484;51.356;6.732;2023-04-01T06:33:43;11.43;;;4.90;;
66619;SDS011;53484;51.356;6.732;2023-04-01T06:36:20;9.97;;;4.83;;
66619;SDS011;53484;51.356;6.732;2023-04-01T06:38:53;8.43;;;4.38;;
66619;SDS011;53484;51.356;6.732;2023-04-01T06:41:24;10.65;;;5.25;;
66619;SDS011;53484;51.356;6.732;2023-04-01T06:43:55;7.28;;;3.65;;
66619;SDS011;53484;51.356;6.732;2023-04-01T06:46:24;11.23;;;4.78;;
66619;SDS011;53484;51.356;6.732;2023-04-01T06:49:04;8.63;;;4.50;;
66619;SDS011;53484;51.356;6.732;2023-04-01T06:51:34;8.32;;;4.20;;
66619;SDS011;53484;51.356;6.732;2023-04-01T06:54:07;10.52;;;4.97;;
66619;SDS011;53484;51.356;6.732;2023-04-01T06:56:36;8.65;;;4.22;;
66619;SDS011;53484;51.356;6.732;2023-04-01T06:59:05;10.40;;;5.10;;
66619;SDS011;53484;51.356;6.732;2023-04-01T07:01:34;9.17;;;4.53;;
66619;SDS011;53484;51.356;6.732;2023-04-01T07:04:02;10.65;;;5.82;;
66619;SDS011;53484;51.356;6.732;2023-04-01T07:06:30;11.13;;;6.70;;
66619;SDS011;53484;51.356;6.732;2023-04-01T07:08:58;13.02;;;6.55;;
66619;SDS011;53484;51.356;6.732;2023-04-01T07:11:26;11.13;;;6.25;;
66619;SDS011;53484;51.356;6.732;2023-04-01T07:13:57;13.20;;;5.73;;
66619;SDS011;53484;51.356;6.732;2023-04-01T07:16:25;12.00;;;6.45;;
66619;SDS011;53484;51.356;6.732;2023-04-01T07:18:54;10.57;;;6.43;;
66619;SDS011;53484;51.356;6.732;2023-04-01T07:21:25;10.70;;;6.70;;
66619;SDS011;53484;51.356;6.732;2023-04-01T07:23:52;11.52;;;5.97;;
66619;SDS011;53484;51.356;6.732;2023-04-01T07:26:21;11.03;;;6.37;;
66619;SDS011;53484;51.356;6.732;2023-04-01T07:28:47;13.30;;;6.93;;
66619;SDS011;53484;51.356;6.732;2023-04-01T07:31:18;10.52;;;5.90;;
66619;SDS011;53484;51.356;6.732;2023-04-01T07:33:48;9.88;;;6.13;;
66619;SDS011;53484;51.356;6.732;2023-04-01T07:36:18;15.73;;;7.38;;
66619;SDS011;53484;51.356;6.732;2023-04-01T07:38:52;8.97;;;5.23;;
66619;SDS011;53484;51.356;6.732;2023-04-01T07:41:21;7.03;;;4.28;;
66619;SDS011;53484;51.356;6.732;2023-04-01T07:43:54;10.70;;;6.50;;
66619;SDS011;53484;51.356;6.732;2023-04-01T07:46:26;7.60;;;4.93;;
66619;SDS011;53484;51.356;6.732;2023-04-01T07:48:55;8.50;;;4.72;;
66619;SDS011;53484;51.356;6.732;2023-04-01T07:51:24;8.50;;;5.30;;
66619;SDS011;53484;51.356;6.732;2023-04-01T07:53:54;8.98;;;4.93;;
66619;SDS011;53484;51.356;6.732;2023-04-01T07:56:26;7.78;;;4.20;;
66619;SDS011;53484;51.356;6.732;2023-04-01T07:58:58;8.60;;;4.65;;
66619;SDS011;53484;51.356;6.732;2023-04-01T08:01:29;9.88;;;5.55;;
66619;SDS011;53484;51.356;6.732;2023-04-01T08:04:08;9.37;;;5.17;;
66619;SDS011;53484;51.356;6.732;2023-04-01T08:06:40;9.88;;;5.90;;
66619;SDS011;53484;51.356;6.732;2023-04-01T08:09:09;10.10;;;6.15;;
66619;SDS011;53484;51.356;6.732;2023-04-01T08:11:41;8.68;;;5.18;;
66619;SDS011;53484;51.356;6.732;2023-04-01T08:14:12;8.55;;;5.13;;
66619;SDS011;53484;51.356;6.732;2023-04-01T08:16:45;7.77;;;4.60;;
66619;SDS011;53484;51.356;6.732;2023-04-01T08:19:15;9.60;;;5.63;;
66619;SDS011;53484;51.356;6.732;2023-04-01T08:21:47;8.38;;;4.90;;
66619;SDS011;53484;51.356;6.732;2023-04-01T08:24:18;7.45;;;4.60;;
66619;SDS011;53484;51.356;6.732;2023-04-01T08:26:48;9.02;;;5.00;;
66619;SDS011;53484;51.356;6.732;2023-04-01T08:29:16;10.33;;;5.43;;
66619;SDS011;53484;51.356;6.732;2023-04-01T08:31:48;8.80;;;4.65;;
66619;SDS011;53484;51.356;6.732;2023-04-01T08:34:16;9.45;;;5.95;;
66619;SDS011;53484;51.356;6.732;2023-04-01T08:36:45;9.02;;;5.05;;
66619;SDS011;53484;51.356;6.732;2023-04-01T08:39:15;9.30;;;5.63;;
66619;SDS011;53484;51.356;6.732;2023-04-01T08:41:53;10.20;;;6.27;;
66619;SDS011;53484;51.356;6.732;2023-04-01T08:47:21;11.65;;;6.32;;
66619;SDS011;53484;51.356;6.732;2023-04-01T08:52:35;9.00;;;5.38;;
66619;SDS011;53484;51.356;6.732;2023-04-01T08:57:45;10.98;;;6.07;;
66619;SDS011;53484;51.356;6.732;2023-04-01T09:00:19;12.30;;;6.20;;
66619;SDS011;53484;51.356;6.732;2023-04-01T09:08:23;14.63;;;7.43;;
66619;SDS011;53484;51.356;6.732;2023-04-01T09:10:59;13.75;;;7.35;;
66619;SDS011;53484;51.356;6.732;2023-04-01T09:13:34;16.25;;;7.57;;
66619;SDS011;53484;51.356;6.732;2023-04-01T09:18:53;14.90;;;7.75;;
66619;SDS011;53484;51.356;6.732;2023-04-01T09:21:24;17.60;;;8.53;;
66619;SDS011;53484;51.356;6.732;2023-04-01T09:24:00;18.30;;;8.32;;
66619;SDS011;53484;51.356;6.732;2023-04-01T09:29:18;14.90;;;7.20;;
66619;SDS011;53484;51.356;6.732;2023-04-01T09:32:03;14.18;;;7.47;;
66619;SDS011;53484;51.356;6.732;2023-04-01T09:34:38;13.60;;;7.67;;
66619;SDS011;53484;51.356;6.732;2023-04-01T09:37:17;12.73;;;7.78;;
66619;SDS011;53484;51.356;6.732;2023-04-01T09:39:47;13.45;;;7.70;;
66619;SDS011;53484;51.356;6.732;2023-04-01T09:45:05;16.23;;;8.23;;
66619;SDS011;53484;51.356;6.732;2023-04-01T09:47:42;13.67;;;7.80;;
66619;SDS011;53484;51.356;6.732;2023-04-01T09:50:17;17.55;;;9.63;;
66619;SDS011;53484;51.356;6.732;2023-04-01T09:52:48;21.38;;;9.85;;
66619;SDS011;53484;51.356;6.732;2023-04-01T09:55:21;21.67;;;9.38;;
66619;SDS011;53484;51.356;6.732;2023-04-01T10:03:25;18.38;;;9.02;;
66619;SDS011;53484;51.356;6.732;2023-04-01T10:14:37;18.93;;;8.50;;
66619;SDS011;53484;51.356;6.732;2023-04-01T10:20:02;22.60;;;11.15;;
66619;SDS011;53484;51.356;6.732;2023-04-01T10:30:55;22.08;;;9.52;;
66619;SDS011;53484;51.356;6.732;2023-04-01T10:33:30;27.13;;;10.82;;
66619;SDS011;53484;51.356;6.732;2023-04-01T10:39:08;25.40;;;10.38;;
66619;SDS011;53484;51.356;6.732;2023-04-01T10:44:33;24.85;;;11.13;;
66619;SDS011;53484;51.356;6.732;2023-04-01T10:47:19;25.02;;;11.30;;
66619;SDS011;53484;51.356;6.732;2023-04-01T10:50:04;27.88;;;11.90;;
66619;SDS011;53484;51.356;6.732;2023-04-01T10:52:46;26.95;;;13.40;;
66619;SDS011;53484;51.356;6.732;2023-04-01T10:58:18;22.73;;;11.10;;
66619;SDS011;53484;51.356;6.732;2023-04-01T11:03:57;24.05;;;12.43;;
66619;SDS011;53484;51.356;6.732;2023-04-01T11:12:09;20.52;;;10.07;;
66619;SDS011;53484;51.356;6.732;2023-04-01T11:20:24;23.15;;;12.05;;
66619;SDS011;53484;51.356;6.732;2023-04-01T11:22:59;20.90;;;10.30;;
66619;SDS011;53484;51.356;6.732;2023-04-01T11:25:47;20.90;;;11.30;;
66619;SDS011;53484;51.356;6.732;2023-04-01T11:28:23;21.60;;;11.02;;
66619;SDS011;53484;51.356;6.732;2023-04-01T11:30:59;18.55;;;9.80;;
66619;SDS011;53484;51.356;6.732;2023-04-01T11:33:31;20.30;;;10.07;;
66619;SDS011;53484;51.356;6.732;2023-04-01T11:36:06;17.23;;;9.70;;
66619;SDS011;53484;51.356;6.732;2023-04-01T11:38:42;16.77;;;8.43;;
66619;SDS011;53484;51.356;6.732;2023-04-01T11:41:15;15.95;;;8.63;;
66619;SDS011;53484;51.356;6.732;2023-04-01T11:43:49;18.77;;;9.98;;
66619;SDS011;53484;51.356;6.732;2023-04-01T11:46:20;18.00;;;8.63;;
66619;SDS011;53484;51.356;6.732;2023-04-01T11:48:51;14.57;;;8.10;;
66619;SDS011;53484;51.356;6.732;2023-04-01T11:51:38;13.63;;;7.57;;
66619;SDS011;53484;51.356;6.732;2023-04-01T11:54:10;15.57;;;7.63;;
66619;SDS011;53484;51.356;6.732;2023-04-01T11:56:45;16.45;;;8.65;;
66619;SDS011;53484;51.356;6.732;2023-04-01T11:59:34;17.20;;;8.00;;
66619;SDS011;53484;51.356;6.732;2023-04-01T12:02:08;15.43;;;7.60;;
66619;SDS011;53484;51.356;6.732;2023-04-01T12:04:52;16.10;;;8.55;;
66619;SDS011;53484;51.356;6.732;2023-04-01T12:07:25;15.20;;;7.40;;
66619;SDS011;53484;51.356;6.732;2023-04-01T12:09:56;14.60;;;7.75;;
66619;SDS011;53484;51.356;6.732;2023-04-01T12:12:27;14.88;;;7.65;;
66619;SDS011;53484;51.356;6.732;2023-04-01T12:14:59;14.53;;;8.07;;
66619;SDS011;53484;51.356;6.732;2023-04-01T12:17:30;15.15;;;7.70;;
66619;SDS011;53484;51.356;6.732;2023-04-01T12:19:58;12.95;;;7.43;;
66619;SDS011;53484;51.356;6.732;2023-04-01T12:22:34;16.40;;;8.70;;
66619;SDS011;53484;51.356;6.732;2023-04-01T12:25:14;16.13;;;7.95;;
66619;SDS011;53484;51.356;6.732;2023-04-01T12:27:46;18.93;;;9.53;;
66619;SDS011;53484;51.356;6.732;2023-04-01T12:30:37;16.73;;;8.48;;
66619;SDS011;53484;51.356;6.732;2023-04-01T12:33:15;13.23;;;7.80;;
66619;SDS011;53484;51.356;6.732;2023-04-01T12:35:49;18.55;;;8.88;;
66619;SDS011;53484;51.356;6.732;2023-04-01T12:38:23;16.80;;;8.88;;
66619;SDS011;53484;51.356;6.732;2023-04-01T12:40:56;18.00;;;8.80;;
66619;SDS011;53484;51.356;6.732;2023-04-01T12:46:22;19.35;;;9.07;;
66619;SDS011;53484;51.356;6.732;2023-04-01T12:49:10;15.18;;;8.07;;
66619;SDS011;53484;51.356;6.732;2023-04-01T12:54:43;15.20;;;8.17;;
66619;SDS011;53484;51.356;6.732;2023-04-01T12:57:20;15.38;;;8.32;;
66619;SDS011;53484;51.356;6.732;2023-04-01T13:00:03;16.50;;;8.10;;
66619;SDS011;53484;51.356;6.732;2023-04-01T13:02:37;17.35;;;8.40;;
66619;SDS011;53484;51.356;6.732;2023-04-01T13:05:12;18.30;;;9.50;;
66619;SDS011;53484;51.356;6.732;2023-04-01T13:07:46;17.57;;;7.47;;
66619;SDS011;53484;51.356;6.732;2023-04-01T13:10:20;14.38;;;7.82;;
66619;SDS011;53484;51.356;6.732;2023-04-01T13:12:57;19.27;;;9.27;;
66619;SDS011;53484;51.356;6.732;2023-04-01T13:15:26;19.38;;;9.27;;
66619;SDS011;53484;51.356;6.732;2023-04-01T13:17:57;26.17;;;10.27;;
66619;SDS011;53484;51.356;6.732;2023-04-01T13:20:28;24.77;;;8.97;;
66619;SDS011;53484;51.356;6.732;2023-04-01T13:23:02;16.55;;;7.43;;
66619;SDS011;53484;51.356;6.732;2023-04-01T13:25:36;24.17;;;9.77;;
66619;SDS011;53484;51.356;6.732;2023-04-01T13:28:06;19.58;;;9.70;;
66619;SDS011;53484;51.356;6.732;2023-04-01T13:30:37;21.77;;;9.27;;
66619;SDS011;53484;51.356;6.732;2023-04-01T13:33:07;21.53;;;8.77;;
66619;SDS011;53484;51.356;6.732;2023-04-01T13:35:37;19.08;;;9.60;;
66619;SDS011;53484;51.356;6.732;2023-04-01T13:38:09;17.13;;;7.85;;
66619;SDS011;53484;51.356;6.732;2023-04-01T13:40:44;22.25;;;9.80;;
66619;SDS011;53484;51.356;6.732;2023-04-01T13:43:15;22.83;;;9.70;;
66619;SDS011;53484;51.356;6.732;2023-04-01T13:45:50;20.50;;;9.50;;
66619;SDS011;53484;51.356;6.732;2023-04-01T13:48:29;21.40;;;9.20;;
66619;SDS011;53484;51.356;6.732;2023-04-01T13:51:06;18.20;;;9.10;;
66619;SDS011;53484;51.356;6.732;2023-04-01T13:56:35;15.20;;;8.07;;
66619;SDS011;53484;51.356;6.732;2023-04-01T13:59:07;16.37;;;8.13;;
66619;SDS011;53484;51.356;6.732;2023-04-01T14:01:39;17.83;;;8.38;;
66619;SDS011;53484;51.356;6.732;2023-04-01T14:04:11;14.27;;;6.88;;
66619;SDS011;53484;51.356;6.732;2023-04-01T14:06:46;17.10;;;7.85;;
66619;SDS011;53484;51.356;6.732;2023-04-01T14:09:19;12.40;;;6.70;;
66619;SDS011;53484;51.356;6.732;2023-04-01T14:11:53;12.43;;;6.80;;
66619;SDS011;53484;51.356;6.732;2023-04-01T14:14:26;15.32;;;6.88;;
66619;SDS011;53484;51.356;6.732;2023-04-01T14:17:03;12.15;;;6.95;;
66619;SDS011;53484;51.356;6.732;2023-04-01T14:19:43;11.90;;;6.10;;
66619;SDS011;53484;51.356;6.732;2023-04-01T14:22:19;13.30;;;7.20;;
66619;SDS011;53484;51.356;6.732;2023-04-01T14:24:55;15.70;;;7.23;;
66619;SDS011;53484;51.356;6.732;2023-04-01T14:27:26;15.90;;;8.30;;
66619;SDS011;53484;51.356;6.732;2023-04-01T14:29:58;14.55;;;7.13;;
66619;SDS011;53484;51.356;6.732;2023-04-01T14:32:28;16.23;;;8.02;;
66619;SDS011;53484;51.356;6.732;2023-04-01T14:34:59;13.10;;;6.82;;
66619;SDS011;53484;51.356;6.732;2023-04-01T14:37:36;12.67;;;6.00;;
66619;SDS011;53484;51.356;6.732;2023-04-01T14:40:26;11.75;;;6.57;;
66619;SDS011;53484;51.356;6.732;2023-04-01T14:42:58;13.55;;;6.60;;
66619;SDS011;53484;51.356;6.732;2023-04-01T14:45:29;12.63;;;6.47;;
66619;SDS011;53484;51.356;6.732;2023-04-01T14:48:05;11.55;;;6.00;;
66619;SDS011;53484;51.356;6.732;2023-04-01T14:50:41;10.77;;;5.73;;
66619;SDS011;53484;51.356;6.732;2023-04-01T14:53:11;12.80;;;6.55;;
66619;SDS011;53484;51.356;6.732;2023-04-01T14:55:44;13.07;;;6.88;;
66619;SDS011;53484;51.356;6.732;2023-04-01T14:58:15;9.68;;;4.95;;
66619;SDS011;53484;51.356;6.732;2023-04-01T15:00:54;12.40;;;6.25;;
66619;SDS011;53484;51.356;6.732;2023-04-01T15:03:22;10.33;;;5.70;;
66619;SDS011;53484;51.356;6.732;2023-04-01T15:05:52;10.43;;;5.20;;
66619;SDS011;53484;51.356;6.732;2023-04-01T15:08:21;12.88;;;6.22;;
66619;SDS011;53484;51.356;6.732;2023-04-01T15:13:37;9.95;;;6.07;;
66619;SDS011;53484;51.356;6.732;2023-04-01T15:16:10;11.20;;;5.90;;
66619;SDS011;53484;51.356;6.732;2023-04-01T15:18:41;11.05;;;5.47;;
66619;SDS011;53484;51.356;6.732;2023-04-01T15:21:18;9.73;;;5.80;;
66619;SDS011;53484;51.356;6.732;2023-04-01T15:23:50;12.63;;;5.97;;
66619;SDS011;53484;51.356;6.732;2023-04-01T15:26:25;12.27;;;6.20;;
66619;SDS011;53484;51.356;6.732;2023-04-01T15:29:03;12.97;;;5.63;;
66619;SDS011;53484;51.356;6.732;2023-04-01T15:31:32;9.82;;;5.05;;
66619;SDS011;53484;51.356;6.732;2023-04-01T15:34:06;13.90;;;5.93;;
66619;SDS011;53484;51.356;6.732;2023-04-01T15:36:35;11.55;;;5.22;;
66619;SDS011;53484;51.356;6.732;2023-04-01T15:39:05;13.88;;;5.20;;
66619;SDS011;53484;51.356;6.732;2023-04-01T15:41:38;12.57;;;6.20;;
66619;SDS011;53484;51.356;6.732;2023-04-01T15:46:50;13.45;;;5.88;;
66619;SDS011;53484;51.356;6.732;2023-04-01T15:49:20;11.05;;;5.57;;
66619;SDS011;53484;51.356;6.732;2023-04-01T15:51:54;9.48;;;4.43;;
66619;SDS011;53484;51.356;6.732;2023-04-01T15:54:23;11.67;;;5.10;;
66619;SDS011;53484;51.356;6.732;2023-04-01T15:56:53;10.90;;;5.45;;
66619;SDS011;53484;51.356;6.732;2023-04-01T15:59:41;8.05;;;4.22;;
66619;SDS011;53484;51.356;6.732;2023-04-01T16:02:12;12.80;;;5.53;;
66619;SDS011;53484;51.356;6.732;2023-04-01T16:04:46;12.52;;;5.18;;
66619;SDS011;53484;51.356;6.732;2023-04-01T16:07:18;12.93;;;5.40;;
66619;SDS011;53484;51.356;6.732;2023-04-01T16:09:52;10.77;;;5.18;;
66619;SDS011;53484;51.356;6.732;2023-04-01T16:12:25;11.95;;;6.15;;
66619;SDS011;53484;51.356;6.732;2023-04-01T16:15:00;11.90;;;5.57;;
66619;SDS011;53484;51.356;6.732;2023-04-01T16:17:36;9.70;;;5.25;;
66619;SDS011;53484;51.356;6.732;2023-04-01T16:20:12;11.30;;;5.70;;
66619;SDS011;53484;51.356;6.732;2023-04-01T16:22:44;11.52;;;5.60;;
66619;SDS011;53484;51.356;6.732;2023-04-01T16:25:17;9.05;;;4.93;;
66619;SDS011;53484;51.356;6.732;2023-04-01T16:27:46;10.98;;;5.57;;
66619;SDS011;53484;51.356;6.732;2023-04-01T16:30:23;10.23;;;5.53;;